sensor_id;sensor_type;location;lat;lon;timestamp;temperature;humidity
52209;DHT22;38507;53.132;6.394;2022-08-19T00:00:27;15.30;99.90
52209;DHT22;38507;53.132;6.394;2022-08-19T00:02:53;15.30;99.90
52209;DHT22;38507;53.132;6.394;2022-08-19T00:05:20;15.30;99.90
52209;DHT22;38507;53.132;6.394;2022-08-19T00:07:47;15.30;99.90
52209;DHT22;38507;53.132;6.394;2022-08-19T00:10:15;15.30;99.90
52209;DHT22;38507;53.132;6.394;2022-08-19T00:12:41;15.20;99.90
52209;DHT22;38507;53.132;6.394;2022-08-19T00:15:09;15.40;99.90
52209;DHT22;38507;53.132;6.394;2022-08-19T00:17:40;15.20;99.90
52209;DHT22;38507;53.132;6.394;2022-08-19T00:20:07;15.20;99.90
52209;DHT22;38507;53.132;6.394;2022-08-19T00:22:33;15.20;99.90
52209;DHT22;38507;53.132;6.394;2022-08-19T00:24:59;15.10;99.90
52209;DHT22;38507;53.132;6.394;2022-08-19T00:27:24;15.20;99.90
52209;DHT22;38507;53.132;6.394;2022-08-19T00:29:50;15.00;99.90
52209;DHT22;38507;53.132;6.394;2022-08-19T00:32:16;15.00;99.90
52209;DHT22;38507;53.132;6.394;2022-08-19T00:34:42;14.90;99.90
52209;DHT22;38507;53.132;6.394;2022-08-19T00:37:09;14.80;99.90
52209;DHT22;38507;53.132;6.394;2022-08-19T00:39:35;14.80;99.90
52209;DHT22;38507;53.132;6.394;2022-08-19T00:42:00;14.80;99.90
52209;DHT22;38507;53.132;6.394;2022-08-19T00:44:27;14.70;99.90
52209;DHT22;38507;53.132;6.394;2022-08-19T00:46:56;14.60;99.90
52209;DHT22;38507;53.132;6.394;2022-08-19T00:49:52;14.90;99.90
52209;DHT22;38507;53.132;6.394;2022-08-19T00:52:23;14.60;99.90
52209;DHT22;38507;53.132;6.394;2022-08-19T00:54:49;14.50;99.90
52209;DHT22;38507;53.132;6.394;2022-08-19T00:57:19;14.50;99.90
52209;DHT22;38507;53.132;6.394;2022-08-19T00:59:48;14.60;99.90
52209;DHT22;38507;53.132;6.394;2022-08-19T01:02:18;14.40;99.90
52209;DHT22;38507;53.132;6.394;2022-08-19T01:04:43;14.40;99.90
52209;DHT22;38507;53.132;6.394;2022-08-19T01:07:09;14.40;99.90
52209;DHT22;38507;53.132;6.394;2022-08-19T01:09:35;14.30;99.90
52209;DHT22;38507;53.132;6.394;2022-08-19T01:12:01;14.30;99.90
52209;DHT22;38507;53.132;6.394;2022-08-19T01:14:27;14.30;99.90
52209;DHT22;38507;53.132;6.394;2022-08-19T01:16:55;14.30;99.90
52209;DHT22;38507;53.132;6.394;2022-08-19T01:19:32;14.30;99.90
52209;DHT22;38507;53.132;6.394;2022-08-19T01:22:03;14.30;99.90
52209;DHT22;38507;53.132;6.394;2022-08-19T01:24:31;14.20;99.90
52209;DHT22;38507;53.132;6.394;2022-08-19T01:26:57;14.20;99.90
52209;DHT22;38507;53.132;6.394;2022-08-19T01:29:23;14.10;99.90
52209;DHT22;38507;53.132;6.394;2022-08-19T01:31:49;14.10;99.90
52209;DHT22;38507;53.132;6.394;2022-08-19T01:34:18;14.10;99.90
52209;DHT22;38507;53.132;6.394;2022-08-19T01:36:46;14.00;99.90
52209;DHT22;38507;53.132;6.394;2022-08-19T01:39:16;14.10;99.90
52209;DHT22;38507;53.132;6.394;2022-08-19T01:41:42;14.00;99.90
52209;DHT22;38507;53.132;6.394;2022-08-19T01:44:09;14.00;99.90
52209;DHT22;38507;53.132;6.394;2022-08-19T01:46:35;13.90;99.90
52209;DHT22;38507;53.132;6.394;2022-08-19T01:49:02;14.00;99.90
52209;DHT22;38507;53.132;6.394;2022-08-19T01:51:28;13.90;99.90
52209;DHT22;38507;53.132;6.394;2022-08-19T01:53:56;13.90;99.90
52209;DHT22;38507;53.132;6.394;2022-08-19T01:56:23;13.90;99.90
52209;DHT22;38507;53.132;6.394;2022-08-19T01:59:02;14.20;99.90
52209;DHT22;38507;53.132;6.394;2022-08-19T02:01:28;13.90;99.90
52209;DHT22;38507;53.132;6.394;2022-08-19T02:03:57;13.90;99.90
52209;DHT22;38507;53.132;6.394;2022-08-19T02:06:23;13.90;99.90
52209;DHT22;38507;53.132;6.394;2022-08-19T02:08:49;13.90;99.90
52209;DHT22;38507;53.132;6.394;2022-08-19T02:11:32;13.90;99.90
52209;DHT22;38507;53.132;6.394;2022-08-19T02:14:00;13.90;99.90
52209;DHT22;38507;53.132;6.394;2022-08-19T02:16:27;14.00;99.90
52209;DHT22;38507;53.132;6.394;2022-08-19T02:18:53;13.80;99.90
52209;DHT22;38507;53.132;6.394;2022-08-19T02:21:22;13.80;99.90
52209;DHT22;38507;53.132;6.394;2022-08-19T02:23:49;13.80;99.90
52209;DHT22;38507;53.132;6.394;2022-08-19T02:26:17;13.80;99.90
52209;DHT22;38507;53.132;6.394;2022-08-19T02:28:44;13.80;99.90
52209;DHT22;38507;53.132;6.394;2022-08-19T02:31:12;13.70;99.90
52209;DHT22;38507;53.132;6.394;2022-08-19T02:33:38;13.70;99.90
52209;DHT22;38507;53.132;6.394;2022-08-19T02:36:05;13.70;99.90
52209;DHT22;38507;53.132;6.394;2022-08-19T02:38:31;13.60;99.90
52209;DHT22;38507;53.132;6.394;2022-08-19T02:41:12;13.50;99.90
52209;DHT22;38507;53.132;6.394;2022-08-19T02:43:39;13.60;99.90
52209;DHT22;38507;53.132;6.394;2022-08-19T02:46:26;13.60;99.90
52209;DHT22;38507;53.132;6.394;2022-08-19T02:48:56;13.50;99.90
52209;DHT22;38507;53.132;6.394;2022-08-19T02:51:24;13.50;99.90
52209;DHT22;38507;53.132;6.394;2022-08-19T02:53:50;13.60;99.90
52209;DHT22;38507;53.132;6.394;2022-08-19T02:56:17;13.50;99.90
52209;DHT22;38507;53.132;6.394;2022-08-19T02:58:43;13.50;99.90
52209;DHT22;38507;53.132;6.394;2022-08-19T03:01:10;13.50;99.90
52209;DHT22;38507;53.132;6.394;2022-08-19T03:03:36;13.60;99.90
52209;DHT22;38507;53.132;6.394;2022-08-19T03:06:12;13.50;99.90
52209;DHT22;38507;53.132;6.394;2022-08-19T03:08:39;13.40;99.90
52209;DHT22;38507;53.132;6.394;2022-08-19T03:11:05;13.40;99.90
52209;DHT22;38507;53.132;6.394;2022-08-19T03:13:32;13.60;99.90
52209;DHT22;38507;53.132;6.394;2022-08-19T03:15:58;13.40;99.90
52209;DHT22;38507;53.132;6.394;2022-08-19T03:18:23;13.50;99.90
52209;DHT22;38507;53.132;6.394;2022-08-19T03:20:51;13.40;99.90
52209;DHT22;38507;53.132;6.394;2022-08-19T03:23:19;13.40;99.90
52209;DHT22;38507;53.132;6.394;2022-08-19T03:25:49;13.50;99.90
52209;DHT22;38507;53.132;6.394;2022-08-19T03:28:16;13.40;99.90
52209;DHT22;38507;53.132;6.394;2022-08-19T03:30:44;13.40;99.90
52209;DHT22;38507;53.132;6.394;2022-08-19T03:33:21;13.60;99.90
52209;DHT22;38507;53.132;6.394;2022-08-19T03:35:47;13.50;99.90
52209;DHT22;38507;53.132;6.394;2022-08-19T03:38:12;13.60;99.90
52209;DHT22;38507;53.132;6.394;2022-08-19T03:40:38;13.50;99.90
52209;DHT22;38507;53.132;6.394;2022-08-19T03:43:03;13.70;99.90
52209;DHT22;38507;53.132;6.394;2022-08-19T03:45:29;13.40;99.90
52209;DHT22;38507;53.132;6.394;2022-08-19T03:47:55;13.40;99.90
52209;DHT22;38507;53.132;6.394;2022-08-19T03:50:21;13.30;99.90
52209;DHT22;38507;53.132;6.394;2022-08-19T03:52:52;13.50;99.90
52209;DHT22;38507;53.132;6.394;2022-08-19T03:55:18;13.30;99.90
52209;DHT22;38507;53.132;6.394;2022-08-19T03:57:44;13.30;99.90
52209;DHT22;38507;53.132;6.394;2022-08-19T04:00:11;13.50;99.90
52209;DHT22;38507;53.132;6.394;2022-08-19T04:02:37;13.30;99.90
52209;DHT22;38507;53.132;6.394;2022-08-19T04:05:03;13.30;99.90
52209;DHT22;38507;53.132;6.394;2022-08-19T04:07:29;13.30;99.90
52209;DHT22;38507;53.132;6.394;2022-08-19T04:09:54;13.30;99.90
52209;DHT22;38507;53.132;6.394;2022-08-19T04:12:20;13.40;99.90
52209;DHT22;38507;53.132;6.394;2022-08-19T04:14:46;13.40;99.90
52209;DHT22;38507;53.132;6.394;2022-08-19T04:17:12;13.30;99.90
52209;DHT22;38507;53.132;6.394;2022-08-19T04:19:39;13.30;99.90
52209;DHT22;38507;53.132;6.394;2022-08-19T04:22:06;13.30;99.90
52209;DHT22;38507;53.132;6.394;2022-08-19T04:24:34;13.40;99.90
52209;DHT22;38507;53.132;6.394;2022-08-19T04:27:01;13.40;99.90
52209;DHT22;38507;53.132;6.394;2022-08-19T04:29:28;13.40;99.90
52209;DHT22;38507;53.132;6.394;2022-08-19T04:31:55;13.40;99.90
52209;DHT22;38507;53.132;6.394;2022-08-19T04:34:25;13.40;99.90
52209;DHT22;38507;53.132;6.394;2022-08-19T04:36:52;13.40;99.90
52209;DHT22;38507;53.132;6.394;2022-08-19T04:39:21;13.40;99.90
52209;DHT22;38507;53.132;6.394;2022-08-19T04:41:47;13.40;99.90
52209;DHT22;38507;53.132;6.394;2022-08-19T04:44:34;13.50;99.90
52209;DHT22;38507;53.132;6.394;2022-08-19T04:47:00;13.50;99.90
52209;DHT22;38507;53.132;6.394;2022-08-19T04:49:26;13.60;99.90
52209;DHT22;38507;53.132;6.394;2022-08-19T04:51:53;13.50;99.90
52209;DHT22;38507;53.132;6.394;2022-08-19T04:54:20;13.50;99.90
52209;DHT22;38507;53.132;6.394;2022-08-19T04:56:49;13.60;99.90
52209;DHT22;38507;53.132;6.394;2022-08-19T04:59:16;13.60;99.90
52209;DHT22;38507;53.132;6.394;2022-08-19T05:01:42;13.90;99.90
52209;DHT22;38507;53.132;6.394;2022-08-19T05:04:09;13.70;99.90
52209;DHT22;38507;53.132;6.394;2022-08-19T05:06:35;13.70;99.90
52209;DHT22;38507;53.132;6.394;2022-08-19T05:09:04;13.70;99.90
52209;DHT22;38507;53.132;6.394;2022-08-19T05:11:34;13.70;99.90
52209;DHT22;38507;53.132;6.394;2022-08-19T05:14:05;13.80;99.90
52209;DHT22;38507;53.132;6.394;2022-08-19T05:16:31;13.80;99.90
52209;DHT22;38507;53.132;6.394;2022-08-19T05:18:57;13.80;99.90
52209;DHT22;38507;53.132;6.394;2022-08-19T05:21:42;13.90;99.90
52209;DHT22;38507;53.132;6.394;2022-08-19T05:24:29;13.90;99.90
52209;DHT22;38507;53.132;6.394;2022-08-19T05:26:55;13.80;99.90
52209;DHT22;38507;53.132;6.394;2022-08-19T05:29:26;14.10;99.90
52209;DHT22;38507;53.132;6.394;2022-08-19T05:31:53;14.00;99.90
52209;DHT22;38507;53.132;6.394;2022-08-19T05:34:20;13.90;99.90
52209;DHT22;38507;53.132;6.394;2022-08-19T05:36:56;14.10;99.90
52209;DHT22;38507;53.132;6.394;2022-08-19T05:39:27;14.20;99.90
52209;DHT22;38507;53.132;6.394;2022-08-19T05:41:56;14.30;99.90
52209;DHT22;38507;53.132;6.394;2022-08-19T05:44:27;14.30;99.90
52209;DHT22;38507;53.132;6.394;2022-08-19T05:46:57;14.40;99.90
52209;DHT22;38507;53.132;6.394;2022-08-19T05:49:23;14.50;99.90
52209;DHT22;38507;53.132;6.394;2022-08-19T05:51:51;14.50;99.90
52209;DHT22;38507;53.132;6.394;2022-08-19T05:54:17;14.60;99.90
52209;DHT22;38507;53.132;6.394;2022-08-19T05:56:44;14.80;99.90
52209;DHT22;38507;53.132;6.394;2022-08-19T05:59:13;14.80;99.90
52209;DHT22;38507;53.132;6.394;2022-08-19T06:01:41;15.00;99.90
52209;DHT22;38507;53.132;6.394;2022-08-19T06:04:07;15.30;99.90
52209;DHT22;38507;53.132;6.394;2022-08-19T06:06:33;15.10;99.90
52209;DHT22;38507;53.132;6.394;2022-08-19T06:09:01;15.20;99.90
52209;DHT22;38507;53.132;6.394;2022-08-19T06:11:37;15.30;99.90
52209;DHT22;38507;53.132;6.394;2022-08-19T06:14:08;15.40;99.90
52209;DHT22;38507;53.132;6.394;2022-08-19T06:16:39;15.60;99.90
52209;DHT22;38507;53.132;6.394;2022-08-19T06:19:11;15.90;99.90
52209;DHT22;38507;53.132;6.394;2022-08-19T06:21:38;15.90;99.90
52209;DHT22;38507;53.132;6.394;2022-08-19T06:24:06;16.10;99.90
52209;DHT22;38507;53.132;6.394;2022-08-19T06:26:34;16.10;99.90
52209;DHT22;38507;53.132;6.394;2022-08-19T06:29:01;16.20;99.90
52209;DHT22;38507;53.132;6.394;2022-08-19T06:31:28;16.30;99.90
52209;DHT22;38507;53.132;6.394;2022-08-19T06:33:54;16.40;99.90
52209;DHT22;38507;53.132;6.394;2022-08-19T06:36:34;16.60;99.90
52209;DHT22;38507;53.132;6.394;2022-08-19T06:39:04;16.70;99.90
52209;DHT22;38507;53.132;6.394;2022-08-19T06:41:34;16.70;99.90
52209;DHT22;38507;53.132;6.394;2022-08-19T06:44:00;16.80;99.90
52209;DHT22;38507;53.132;6.394;2022-08-19T06:46:26;16.90;99.90
52209;DHT22;38507;53.132;6.394;2022-08-19T06:48:53;17.00;99.90
52209;DHT22;38507;53.132;6.394;2022-08-19T06:51:20;17.20;99.90
52209;DHT22;38507;53.132;6.394;2022-08-19T06:53:48;17.20;99.90
52209;DHT22;38507;53.132;6.394;2022-08-19T06:56:16;17.40;99.90
52209;DHT22;38507;53.132;6.394;2022-08-19T06:58:42;17.50;99.90
52209;DHT22;38507;53.132;6.394;2022-08-19T07:01:08;17.70;99.90
52209;DHT22;38507;53.132;6.394;2022-08-19T07:03:35;17.80;99.90
52209;DHT22;38507;53.132;6.394;2022-08-19T07:06:06;17.90;99.90
52209;DHT22;38507;53.132;6.394;2022-08-19T07:08:33;18.00;99.90
52209;DHT22;38507;53.132;6.394;2022-08-19T07:11:00;18.10;99.90
52209;DHT22;38507;53.132;6.394;2022-08-19T07:13:26;18.30;99.90
52209;DHT22;38507;53.132;6.394;2022-08-19T07:15:52;18.40;99.90
52209;DHT22;38507;53.132;6.394;2022-08-19T07:18:19;18.50;99.90
52209;DHT22;38507;53.132;6.394;2022-08-19T07:20:45;18.70;99.90
52209;DHT22;38507;53.132;6.394;2022-08-19T07:23:12;18.60;99.90
52209;DHT22;38507;53.132;6.394;2022-08-19T07:25:38;18.80;99.90
52209;DHT22;38507;53.132;6.394;2022-08-19T07:28:04;18.90;99.90
52209;DHT22;38507;53.132;6.394;2022-08-19T07:30:30;19.00;99.90
52209;DHT22;38507;53.132;6.394;2022-08-19T07:32:56;19.20;99.90
52209;DHT22;38507;53.132;6.394;2022-08-19T07:35:22;19.30;99.90
52209;DHT22;38507;53.132;6.394;2022-08-19T07:37:49;19.40;99.90
52209;DHT22;38507;53.132;6.394;2022-08-19T07:40:15;19.50;99.90
52209;DHT22;38507;53.132;6.394;2022-08-19T07:42:41;19.60;99.90
52209;DHT22;38507;53.132;6.394;2022-08-19T07:45:08;19.70;99.90
52209;DHT22;38507;53.132;6.394;2022-08-19T07:47:34;19.80;99.90
52209;DHT22;38507;53.132;6.394;2022-08-19T07:50:01;20.00;99.90
52209;DHT22;38507;53.132;6.394;2022-08-19T07:52:30;20.10;99.90
52209;DHT22;38507;53.132;6.394;2022-08-19T07:54:55;20.20;99.90
52209;DHT22;38507;53.132;6.394;2022-08-19T07:57:21;20.50;99.90
52209;DHT22;38507;53.132;6.394;2022-08-19T07:59:46;20.60;99.90
52209;DHT22;38507;53.132;6.394;2022-08-19T08:02:12;20.80;99.90
52209;DHT22;38507;53.132;6.394;2022-08-19T08:04:38;20.90;99.90
52209;DHT22;38507;53.132;6.394;2022-08-19T08:07:22;21.10;99.90
52209;DHT22;38507;53.132;6.394;2022-08-19T08:10:07;21.30;99.90
52209;DHT22;38507;53.132;6.394;2022-08-19T08:12:36;21.60;99.90
52209;DHT22;38507;53.132;6.394;2022-08-19T08:15:11;21.80;99.90
52209;DHT22;38507;53.132;6.394;2022-08-19T08:17:40;22.00;99.90
52209;DHT22;38507;53.132;6.394;2022-08-19T08:20:06;22.20;99.90
52209;DHT22;38507;53.132;6.394;2022-08-19T08:22:32;22.50;99.90
52209;DHT22;38507;53.132;6.394;2022-08-19T08:25:19;22.60;99.90
52209;DHT22;38507;53.132;6.394;2022-08-19T08:27:46;22.90;99.90
52209;DHT22;38507;53.132;6.394;2022-08-19T08:30:19;23.00;99.90
52209;DHT22;38507;53.132;6.394;2022-08-19T08:32:45;23.30;99.90
52209;DHT22;38507;53.132;6.394;2022-08-19T08:35:14;23.40;99.90
52209;DHT22;38507;53.132;6.394;2022-08-19T08:37:42;23.70;99.90
52209;DHT22;38507;53.132;6.394;2022-08-19T08:43:09;23.80;99.90
52209;DHT22;38507;53.132;6.394;2022-08-19T08:45:45;24.00;99.90
52209;DHT22;38507;53.132;6.394;2022-08-19T08:48:23;24.10;99.90
52209;DHT22;38507;53.132;6.394;2022-08-19T08:50:52;24.30;99.90
52209;DHT22;38507;53.132;6.394;2022-08-19T08:53:20;24.40;99.90
52209;DHT22;38507;53.132;6.394;2022-08-19T08:55:46;24.50;99.90
52209;DHT22;38507;53.132;6.394;2022-08-19T08:58:43;24.70;99.90
52209;DHT22;38507;53.132;6.394;2022-08-19T09:01:11;24.90;99.90
52209;DHT22;38507;53.132;6.394;2022-08-19T09:03:41;25.00;99.90
52209;DHT22;38507;53.132;6.394;2022-08-19T09:06:14;25.30;99.90
52209;DHT22;38507;53.132;6.394;2022-08-19T09:08:55;25.40;99.90
52209;DHT22;38507;53.132;6.394;2022-08-19T09:14:29;25.70;99.90
52209;DHT22;38507;53.132;6.394;2022-08-19T09:16:58;25.70;99.90
52209;DHT22;38507;53.132;6.394;2022-08-19T09:19:24;25.80;99.90
52209;DHT22;38507;53.132;6.394;2022-08-19T09:21:50;25.80;99.90
52209;DHT22;38507;53.132;6.394;2022-08-19T09:24:16;26.10;99.90
52209;DHT22;38507;53.132;6.394;2022-08-19T09:26:42;26.10;99.90
52209;DHT22;38507;53.132;6.394;2022-08-19T09:29:09;26.20;99.90
52209;DHT22;38507;53.132;6.394;2022-08-19T09:31:36;26.20;99.90
52209;DHT22;38507;53.132;6.394;2022-08-19T09:34:02;26.40;99.90
52209;DHT22;38507;53.132;6.394;2022-08-19T09:36:30;26.50;99.90
52209;DHT22;38507;53.132;6.394;2022-08-19T09:38:59;26.60;99.90
52209;DHT22;38507;53.132;6.394;2022-08-19T09:41:25;26.70;99.90
52209;DHT22;38507;53.132;6.394;2022-08-19T09:43:54;26.90;99.90
52209;DHT22;38507;53.132;6.394;2022-08-19T09:46:22;26.90;99.90
52209;DHT22;38507;53.132;6.394;2022-08-19T09:48:49;26.90;99.90
52209;DHT22;38507;53.132;6.394;2022-08-19T09:51:20;27.10;99.90
52209;DHT22;38507;53.132;6.394;2022-08-19T09:53:47;27.20;99.90
52209;DHT22;38507;53.132;6.394;2022-08-19T09:56:17;27.30;99.90
52209;DHT22;38507;53.132;6.394;2022-08-19T09:58:43;27.40;99.90
52209;DHT22;38507;53.132;6.394;2022-08-19T10:01:25;27.50;99.90
52209;DHT22;38507;53.132;6.394;2022-08-19T10:03:53;27.50;99.90
52209;DHT22;38507;53.132;6.394;2022-08-19T10:06:21;27.60;99.90
52209;DHT22;38507;53.132;6.394;2022-08-19T10:08:48;27.70;99.90
52209;DHT22;38507;53.132;6.394;2022-08-19T10:11:15;27.60;99.90
52209;DHT22;38507;53.132;6.394;2022-08-19T10:13:43;27.60;99.90
52209;DHT22;38507;53.132;6.394;2022-08-19T10:16:13;27.80;99.90
52209;DHT22;38507;53.132;6.394;2022-08-19T10:18:39;27.80;99.90
52209;DHT22;38507;53.132;6.394;2022-08-19T10:23:43;27.70;99.90
52209;DHT22;38507;53.132;6.394;2022-08-19T10:26:15;27.80;99.90
52209;DHT22;38507;53.132;6.394;2022-08-19T10:28:41;27.90;99.90
52209;DHT22;38507;53.132;6.394;2022-08-19T10:31:15;28.00;99.90
52209;DHT22;38507;53.132;6.394;2022-08-19T10:33:43;28.10;99.90
52209;DHT22;38507;53.132;6.394;2022-08-19T10:36:18;28.10;99.90
52209;DHT22;38507;53.132;6.394;2022-08-19T10:38:45;28.20;99.90
52209;DHT22;38507;53.132;6.394;2022-08-19T10:41:14;28.20;99.90
52209;DHT22;38507;53.132;6.394;2022-08-19T10:43:41;28.10;99.90
52209;DHT22;38507;53.132;6.394;2022-08-19T10:46:09;27.90;99.90
52209;DHT22;38507;53.132;6.394;2022-08-19T10:48:36;27.80;99.90
52209;DHT22;38507;53.132;6.394;2022-08-19T10:51:03;27.80;99.90
52209;DHT22;38507;53.132;6.394;2022-08-19T10:53:48;27.90;99.90
52209;DHT22;38507;53.132;6.394;2022-08-19T10:56:14;28.20;99.90
52209;DHT22;38507;53.132;6.394;2022-08-19T10:58:58;28.20;99.90
52209;DHT22;38507;53.132;6.394;2022-08-19T11:01:27;28.40;99.90
52209;DHT22;38507;53.132;6.394;2022-08-19T11:03:55;28.70;99.90
52209;DHT22;38507;53.132;6.394;2022-08-19T11:06:23;28.80;99.90
52209;DHT22;38507;53.132;6.394;2022-08-19T11:08:51;28.60;99.90
52209;DHT22;38507;53.132;6.394;2022-08-19T11:11:17;28.40;99.90
52209;DHT22;38507;53.132;6.394;2022-08-19T11:13:42;28.30;99.90
52209;DHT22;38507;53.132;6.394;2022-08-19T11:16:15;28.10;99.90
52209;DHT22;38507;53.132;6.394;2022-08-19T11:18:47;28.00;99.90
52209;DHT22;38507;53.132;6.394;2022-08-19T11:21:20;28.20;99.90
52209;DHT22;38507;53.132;6.394;2022-08-19T11:23:49;28.40;99.90
52209;DHT22;38507;53.132;6.394;2022-08-19T11:26:16;28.50;99.90
52209;DHT22;38507;53.132;6.394;2022-08-19T11:28:42;28.60;99.90
52209;DHT22;38507;53.132;6.394;2022-08-19T11:31:13;28.70;99.90
52209;DHT22;38507;53.132;6.394;2022-08-19T11:33:39;28.40;99.90
52209;DHT22;38507;53.132;6.394;2022-08-19T11:36:05;28.30;99.90
52209;DHT22;38507;53.132;6.394;2022-08-19T11:38:33;28.20;99.90
52209;DHT22;38507;53.132;6.394;2022-08-19T11:41:03;28.10;99.90
52209;DHT22;38507;53.132;6.394;2022-08-19T11:43:30;28.00;99.90
52209;DHT22;38507;53.132;6.394;2022-08-19T11:45:56;27.80;99.90
52209;DHT22;38507;53.132;6.394;2022-08-19T11:48:23;27.70;99.90
52209;DHT22;38507;53.132;6.394;2022-08-19T11:50:53;27.40;99.90
52209;DHT22;38507;53.132;6.394;2022-08-19T11:53:20;27.20;99.90
52209;DHT22;38507;53.132;6.394;2022-08-19T11:55:47;27.10;99.90
52209;DHT22;38507;53.132;6.394;2022-08-19T11:58:14;27.00;99.90
52209;DHT22;38507;53.132;6.394;2022-08-19T12:00:41;27.00;99.90
52209;DHT22;38507;53.132;6.394;2022-08-19T12:03:07;27.00;99.90
52209;DHT22;38507;53.132;6.394;2022-08-19T12:05:33;26.90;99.90
52209;DHT22;38507;53.132;6.394;2022-08-19T12:07:59;26.90;99.90
52209;DHT22;38507;53.132;6.394;2022-08-19T12:10:25;27.10;99.90
52209;DHT22;38507;53.132;6.394;2022-08-19T12:12:50;27.30;99.90
52209;DHT22;38507;53.132;6.394;2022-08-19T12:15:16;27.50;99.90
52209;DHT22;38507;53.132;6.394;2022-08-19T12:17:42;27.40;99.90
52209;DHT22;38507;53.132;6.394;2022-08-19T12:20:10;27.20;99.90
52209;DHT22;38507;53.132;6.394;2022-08-19T12:22:37;27.20;99.90
52209;DHT22;38507;53.132;6.394;2022-08-19T12:25:03;27.10;99.90
52209;DHT22;38507;53.132;6.394;2022-08-19T12:27:30;27.10;99.90
52209;DHT22;38507;53.132;6.394;2022-08-19T12:29:56;26.90;99.90
52209;DHT22;38507;53.132;6.394;2022-08-19T12:32:22;27.00;99.90
52209;DHT22;38507;53.132;6.394;2022-08-19T12:34:50;26.90;99.90
52209;DHT22;38507;53.132;6.394;2022-08-19T12:37:15;26.80;99.90
52209;DHT22;38507;53.132;6.394;2022-08-19T12:39:42;26.80;99.90
52209;DHT22;38507;53.132;6.394;2022-08-19T12:42:12;26.70;99.90
52209;DHT22;38507;53.132;6.394;2022-08-19T12:44:39;26.70;99.90
52209;DHT22;38507;53.132;6.394;2022-08-19T12:47:05;26.60;99.90
52209;DHT22;38507;53.132;6.394;2022-08-19T12:49:32;26.60;99.90
52209;DHT22;38507;53.132;6.394;2022-08-19T12:52:03;26.50;99.90
52209;DHT22;38507;53.132;6.394;2022-08-19T12:54:30;26.40;99.90
52209;DHT22;38507;53.132;6.394;2022-08-19T12:56:57;26.40;99.90
52209;DHT22;38507;53.132;6.394;2022-08-19T12:59:22;26.20;99.90
52209;DHT22;38507;53.132;6.394;2022-08-19T13:01:48;26.20;99.90
52209;DHT22;38507;53.132;6.394;2022-08-19T13:04:14;26.10;99.90
52209;DHT22;38507;53.132;6.394;2022-08-19T13:06:40;26.10;99.90
52209;DHT22;38507;53.132;6.394;2022-08-19T13:09:06;26.10;99.90
52209;DHT22;38507;53.132;6.394;2022-08-19T13:11:32;26.20;99.90
52209;DHT22;38507;53.132;6.394;2022-08-19T13:14:00;26.20;99.90
52209;DHT22;38507;53.132;6.394;2022-08-19T13:16:26;26.20;99.90
52209;DHT22;38507;53.132;6.394;2022-08-19T13:18:54;26.10;99.90
52209;DHT22;38507;53.132;6.394;2022-08-19T13:21:22;25.90;99.90
52209;DHT22;38507;53.132;6.394;2022-08-19T13:23:49;25.90;99.90
52209;DHT22;38507;53.132;6.394;2022-08-19T13:26:16;25.80;99.90
52209;DHT22;38507;53.132;6.394;2022-08-19T13:28:42;25.50;99.90
52209;DHT22;38507;53.132;6.394;2022-08-19T13:31:30;25.40;99.90
52209;DHT22;38507;53.132;6.394;2022-08-19T13:34:15;25.20;99.90
52209;DHT22;38507;53.132;6.394;2022-08-19T13:36:41;25.10;99.90
52209;DHT22;38507;53.132;6.394;2022-08-19T13:39:07;25.10;99.90
52209;DHT22;38507;53.132;6.394;2022-08-19T13:41:34;24.90;99.90
52209;DHT22;38507;53.132;6.394;2022-08-19T13:44:00;24.90;99.90
52209;DHT22;38507;53.132;6.394;2022-08-19T13:46:27;24.90;99.90
52209;DHT22;38507;53.132;6.394;2022-08-19T13:48:55;24.80;99.90
52209;DHT22;38507;53.132;6.394;2022-08-19T13:51:22;24.80;99.90
52209;DHT22;38507;53.132;6.394;2022-08-19T13:53:47;24.60;99.90
52209;DHT22;38507;53.132;6.394;2022-08-19T13:56:15;24.70;99.90
52209;DHT22;38507;53.132;6.394;2022-08-19T13:58:42;24.70;99.90
52209;DHT22;38507;53.132;6.394;2022-08-19T14:01:09;24.70;99.90
52209;DHT22;38507;53.132;6.394;2022-08-19T14:03:35;24.80;99.90
52209;DHT22;38507;53.132;6.394;2022-08-19T14:06:01;24.80;99.90
52209;DHT22;38507;53.132;6.394;2022-08-19T14:08:27;24.80;99.90
52209;DHT22;38507;53.132;6.394;2022-08-19T14:10:56;24.80;99.90
52209;DHT22;38507;53.132;6.394;2022-08-19T14:13:22;24.80;99.90
52209;DHT22;38507;53.132;6.394;2022-08-19T14:15:49;24.90;99.90
52209;DHT22;38507;53.132;6.394;2022-08-19T14:18:17;24.80;99.90
52209;DHT22;38507;53.132;6.394;2022-08-19T14:20:42;24.70;99.90
52209;DHT22;38507;53.132;6.394;2022-08-19T14:23:08;24.80;99.90
52209;DHT22;38507;53.132;6.394;2022-08-19T14:25:34;24.70;99.90
52209;DHT22;38507;53.132;6.394;2022-08-19T14:28:01;24.70;99.90
52209;DHT22;38507;53.132;6.394;2022-08-19T14:30:29;24.80;99.90
52209;DHT22;38507;53.132;6.394;2022-08-19T14:32:56;25.10;99.90
52209;DHT22;38507;53.132;6.394;2022-08-19T14:35:22;25.30;99.90
52209;DHT22;38507;53.132;6.394;2022-08-19T14:37:48;25.40;99.90
52209;DHT22;38507;53.132;6.394;2022-08-19T14:40:18;25.40;99.90
52209;DHT22;38507;53.132;6.394;2022-08-19T14:42:46;25.40;99.90
52209;DHT22;38507;53.132;6.394;2022-08-19T14:45:13;25.40;99.90
52209;DHT22;38507;53.132;6.394;2022-08-19T14:47:39;25.50;99.90
52209;DHT22;38507;53.132;6.394;2022-08-19T14:50:10;25.40;99.90
52209;DHT22;38507;53.132;6.394;2022-08-19T14:52:36;25.50;99.90
52209;DHT22;38507;53.132;6.394;2022-08-19T14:55:02;25.60;99.90
52209;DHT22;38507;53.132;6.394;2022-08-19T14:57:28;25.60;99.90
52209;DHT22;38507;53.132;6.394;2022-08-19T14:59:54;25.60;99.90
52209;DHT22;38507;53.132;6.394;2022-08-19T15:02:19;25.70;99.90
52209;DHT22;38507;53.132;6.394;2022-08-19T15:04:45;25.80;99.90
52209;DHT22;38507;53.132;6.394;2022-08-19T15:07:11;25.60;99.90
52209;DHT22;38507;53.132;6.394;2022-08-19T15:09:37;25.50;99.90
52209;DHT22;38507;53.132;6.394;2022-08-19T15:12:03;25.60;99.90
52209;DHT22;38507;53.132;6.394;2022-08-19T15:14:30;25.30;99.90
52209;DHT22;38507;53.132;6.394;2022-08-19T15:17:01;25.40;99.90
52209;DHT22;38507;53.132;6.394;2022-08-19T15:19:28;25.50;99.90
52209;DHT22;38507;53.132;6.394;2022-08-19T15:21:54;25.40;99.90
52209;DHT22;38507;53.132;6.394;2022-08-19T15:24:20;25.50;99.90
52209;DHT22;38507;53.132;6.394;2022-08-19T15:26:46;25.50;99.90
52209;DHT22;38507;53.132;6.394;2022-08-19T15:29:12;25.40;99.90
52209;DHT22;38507;53.132;6.394;2022-08-19T15:31:41;25.50;99.90
52209;DHT22;38507;53.132;6.394;2022-08-19T15:34:07;25.60;99.90
52209;DHT22;38507;53.132;6.394;2022-08-19T15:36:33;25.50;99.90
52209;DHT22;38507;53.132;6.394;2022-08-19T15:38:59;25.50;99.90
52209;DHT22;38507;53.132;6.394;2022-08-19T15:41:28;25.40;99.90
52209;DHT22;38507;53.132;6.394;2022-08-19T15:44:04;25.40;99.90